createdAt,value
2018-12-29T00:00:53.105Z,13.97
2018-12-29T00:03:28.625Z,12.87
2018-12-29T00:06:01.491Z,11.80
2018-12-29T00:08:39.815Z,13.30
2018-12-29T00:11:21.115Z,13.60
2018-12-29T00:13:59.795Z,13.13
2018-12-29T00:16:40.086Z,12.07
2018-12-29T00:19:21.128Z,12.80
2018-12-29T00:21:54.844Z,13.20
2018-12-29T00:24:26.238Z,12.57
2018-12-29T00:26:58.419Z,12.17
2018-12-29T00:29:29.648Z,12.70
2018-12-29T00:32:05.547Z,13.43
2018-12-29T00:34:37.372Z,13.57
2018-12-29T00:37:08.610Z,13.97
2018-12-29T00:39:40.140Z,13.67
2018-12-29T00:42:11.293Z,12.83
2018-12-29T00:44:42.837Z,14.37
2018-12-29T00:47:16.265Z,12.13
2018-12-29T00:49:51.230Z,13.37
2018-12-29T00:52:32.709Z,13.83
2018-12-29T00:55:07.187Z,12.60
2018-12-29T00:57:43.920Z,14.27
2018-12-29T01:00:21.543Z,11.73
2018-12-29T01:02:53.130Z,13.07
2018-12-29T01:05:35.338Z,12.83
2018-12-29T01:08:13.657Z,11.83
2018-12-29T01:10:47.608Z,13.77
2018-12-29T01:13:19.769Z,12.43
2018-12-29T01:15:50.881Z,12.47
2018-12-29T01:18:32.183Z,12.17
2018-12-29T01:21:03.450Z,12.93
2018-12-29T01:23:34.954Z,11.53
2018-12-29T01:26:06.058Z,12.53
2018-12-29T01:28:38.001Z,11.87
2018-12-29T01:31:09.439Z,12.33
2018-12-29T01:33:41.234Z,12.37
2018-12-29T01:36:12.664Z,13.10
2018-12-29T01:38:43.784Z,13.23
2018-12-29T01:41:15.191Z,12.00
2018-12-29T01:43:46.337Z,12.30
2018-12-29T01:46:17.323Z,13.13
2018-12-29T01:48:48.735Z,12.63
2018-12-29T01:51:20.410Z,12.90
2018-12-29T01:53:51.560Z,12.33
2018-12-29T01:56:23.019Z,12.50
2018-12-29T01:58:55.127Z,11.77
2018-12-29T02:01:27.234Z,12.50
2018-12-29T02:03:58.778Z,12.80
2018-12-29T02:06:30.283Z,13.10
2018-12-29T02:09:10.352Z,13.10
2018-12-29T02:11:41.949Z,13.97
2018-12-29T02:14:13.688Z,12.67
2018-12-29T02:16:45.505Z,12.47
2018-12-29T02:19:16.991Z,12.90
2018-12-29T02:21:48.550Z,13.00
2018-12-29T02:24:20.039Z,14.23
2018-12-29T02:26:51.829Z,12.77
2018-12-29T02:29:23.603Z,12.80
2018-12-29T02:31:54.700Z,12.40
2018-12-29T02:34:26.355Z,13.17
2018-12-29T02:36:57.496Z,12.47
2018-12-29T02:39:28.579Z,14.03
2018-12-29T02:42:00.403Z,13.43
2018-12-29T02:44:32.008Z,11.57
2018-12-29T02:47:04.035Z,12.13
2018-12-29T02:49:35.198Z,12.63
2018-12-29T02:52:07.015Z,12.27
2018-12-29T02:54:38.864Z,13.40
2018-12-29T02:57:14.071Z,12.53
2018-12-29T02:59:48.239Z,12.27
2018-12-29T03:02:19.409Z,12.00
2018-12-29T03:04:51.176Z,12.20
2018-12-29T03:07:22.874Z,12.10
2018-12-29T03:09:54.291Z,12.43
2018-12-29T03:12:25.383Z,12.10
2018-12-29T03:14:57.303Z,12.57
2018-12-29T03:17:28.969Z,12.50
2018-12-29T03:20:00.191Z,12.03
2018-12-29T03:22:31.971Z,12.67
2018-12-29T03:25:03.438Z,11.90
2018-12-29T03:27:35.097Z,12.17
2018-12-29T03:30:06.025Z,11.33
2018-12-29T03:32:37.743Z,12.23
2018-12-29T03:35:11.575Z,12.37
2018-12-29T03:37:44.610Z,11.33
2018-12-29T03:40:17.781Z,12.40
2018-12-29T03:42:49.444Z,13.30
2018-12-29T03:45:22.401Z,11.40
2018-12-29T03:47:53.825Z,12.57
2018-12-29T03:50:26.121Z,12.07
2018-12-29T03:52:56.987Z,13.07
2018-12-29T03:55:29.990Z,12.70
2018-12-29T03:58:01.090Z,12.57
2018-12-29T04:00:35.769Z,11.60
2018-12-29T04:03:07.437Z,11.87
2018-12-29T04:05:40.957Z,11.07
2018-12-29T04:08:12.439Z,12.47
2018-12-29T04:10:44.083Z,13.47
2018-12-29T04:13:15.767Z,11.57
2018-12-29T04:15:47.670Z,12.83
2018-12-29T04:18:22.995Z,12.60
2018-12-29T04:20:54.809Z,11.60
2018-12-29T04:23:26.451Z,12.57
2018-12-29T04:25:58.343Z,11.33
2018-12-29T04:28:30.027Z,12.20
2018-12-29T04:31:02.022Z,14.37
2018-12-29T04:33:33.485Z,12.90
2018-12-29T04:36:06.078Z,11.53
2018-12-29T04:38:37.490Z,12.70
2018-12-29T04:41:08.871Z,13.43
2018-12-29T04:43:41.019Z,11.67
2018-12-29T04:46:11.876Z,11.63
2018-12-29T04:48:45.550Z,12.20
2018-12-29T04:51:17.028Z,12.20
2018-12-29T04:53:53.320Z,11.40
2018-12-29T04:56:28.098Z,12.87
2018-12-29T04:59:00.633Z,11.73
2018-12-29T05:01:34.532Z,12.33
2018-12-29T05:04:07.201Z,12.37
2018-12-29T05:06:41.559Z,12.10
2018-12-29T05:09:14.992Z,13.20
2018-12-29T05:11:46.361Z,12.47
2018-12-29T05:14:22.813Z,13.50
2018-12-29T05:17:03.676Z,11.80
2018-12-29T05:19:35.446Z,12.07
2018-12-29T05:22:08.024Z,12.50
2018-12-29T05:24:39.118Z,11.57
2018-12-29T05:27:10.562Z,11.97
2018-12-29T05:29:42.624Z,11.10
2018-12-29T05:32:14.010Z,11.10
2018-12-29T05:34:47.237Z,11.70
2018-12-29T05:37:23.071Z,12.07
2018-12-29T05:39:54.466Z,11.23
2018-12-29T05:42:27.344Z,11.03
2018-12-29T05:44:58.473Z,12.90
2018-12-29T05:47:30.367Z,11.43
2018-12-29T05:50:08.319Z,11.87
2018-12-29T05:52:41.778Z,12.30
2018-12-29T05:55:13.420Z,11.80
2018-12-29T05:57:45.117Z,11.47
2018-12-29T06:00:18.367Z,10.67
2018-12-29T06:02:56.283Z,13.03
2018-12-29T06:05:30.198Z,13.00
2018-12-29T06:08:03.163Z,13.67
2018-12-29T06:10:41.147Z,12.43
2018-12-29T06:13:19.433Z,11.37
2018-12-29T06:16:01.450Z,13.27
2018-12-29T06:18:40.998Z,11.80
2018-12-29T06:21:13.754Z,11.70
2018-12-29T06:23:45.255Z,11.67
2018-12-29T06:26:16.641Z,11.77
2018-12-29T06:28:54.214Z,11.20
2018-12-29T06:31:38.409Z,11.17
2018-12-29T06:34:16.014Z,11.60
2018-12-29T06:37:02.771Z,12.10
2018-12-29T06:39:45.693Z,11.33
2018-12-29T06:42:17.387Z,10.10
2018-12-29T06:44:49.094Z,10.93
2018-12-29T06:47:20.712Z,9.40
2018-12-29T06:49:53.155Z,10.63
2018-12-29T06:52:24.342Z,10.33
2018-12-29T06:54:56.104Z,13.40
2018-12-29T06:57:27.631Z,11.53
2018-12-29T06:59:59.014Z,10.30
2018-12-29T07:02:30.655Z,10.60
2018-12-29T07:05:02.427Z,10.43
2018-12-29T07:07:34.102Z,9.47
2018-12-29T07:10:05.019Z,11.10
2018-12-29T07:12:36.457Z,10.33
2018-12-29T07:15:07.074Z,10.53
2018-12-29T07:17:38.701Z,9.93
2018-12-29T07:20:09.578Z,10.33
2018-12-29T07:22:41.240Z,10.47
2018-12-29T07:25:12.623Z,11.53
2018-12-29T07:27:43.797Z,10.43
2018-12-29T07:30:14.655Z,10.57
2018-12-29T07:32:45.770Z,11.03
2018-12-29T07:35:17.176Z,10.60
2018-12-29T07:37:48.063Z,10.30
2018-12-29T07:40:19.729Z,10.73
2018-12-29T07:42:51.383Z,9.87
2018-12-29T07:45:21.666Z,9.73
2018-12-29T07:47:53.056Z,10.73
2018-12-29T07:50:24.455Z,10.43
2018-12-29T07:52:55.819Z,9.63
2018-12-29T07:55:27.569Z,11.30
2018-12-29T07:57:58.477Z,9.77
2018-12-29T08:00:29.940Z,9.50
2018-12-29T08:03:01.339Z,11.10
2018-12-29T08:05:33.610Z,10.57
2018-12-29T08:08:06.090Z,10.30
2018-12-29T08:10:38.842Z,10.17
2018-12-29T08:13:09.549Z,10.43
2018-12-29T08:15:40.956Z,10.27
2018-12-29T08:18:12.637Z,9.83
2018-12-29T08:20:44.328Z,9.53
2018-12-29T08:23:16.018Z,10.27
2018-12-29T08:25:47.396Z,10.93
2018-12-29T08:28:20.367Z,10.67
2018-12-29T08:30:51.847Z,9.50
2018-12-29T08:33:23.569Z,10.97
2018-12-29T08:35:54.668Z,9.83
2018-12-29T08:38:26.125Z,10.53
2018-12-29T08:40:57.792Z,9.40
2018-12-29T08:43:28.938Z,10.20
2018-12-29T08:46:00.343Z,11.43
2018-12-29T08:48:31.769Z,10.47
2018-12-29T08:51:03.667Z,10.33
2018-12-29T08:53:34.562Z,11.00
2018-12-29T08:56:05.977Z,10.77
2018-12-29T08:58:45.429Z,12.13
2018-12-29T09:01:18.009Z,11.90
2018-12-29T09:03:49.701Z,10.87
2018-12-29T09:06:21.140Z,10.07
2018-12-29T09:08:52.947Z,10.37
2018-12-29T09:11:24.050Z,11.07
2018-12-29T09:13:55.451Z,10.60
2018-12-29T09:16:27.162Z,10.93
2018-12-29T09:18:58.565Z,10.00
2018-12-29T09:21:29.703Z,10.00
2018-12-29T09:24:00.935Z,11.17
2018-12-29T09:26:32.311Z,10.83
2018-12-29T09:29:03.967Z,11.07
2018-12-29T09:31:35.658Z,11.27
2018-12-29T09:34:07.306Z,9.70
2018-12-29T09:36:38.214Z,11.10
2018-12-29T09:39:10.180Z,10.50
2018-12-29T09:41:41.585Z,10.43
2018-12-29T09:44:13.250Z,12.67
2018-12-29T09:46:44.978Z,11.23
2018-12-29T09:49:16.681Z,11.67
2018-12-29T09:51:50.530Z,11.87
2018-12-29T09:54:21.638Z,12.43
2018-12-29T09:56:52.859Z,16.97
2018-12-29T09:59:23.997Z,15.37
2018-12-29T10:01:55.422Z,13.30
2018-12-29T10:04:27.155Z,12.07
2018-12-29T10:06:58.361Z,12.53
2018-12-29T10:09:29.825Z,12.03
2018-12-29T10:12:01.506Z,13.10
2018-12-29T10:14:33.163Z,12.87
2018-12-29T10:17:04.825Z,12.50
2018-12-29T10:19:35.680Z,12.30
2018-12-29T10:22:07.048Z,12.27
2018-12-29T10:24:40.922Z,11.40
2018-12-29T10:27:11.544Z,12.57
2018-12-29T10:29:43.187Z,10.50
2018-12-29T10:32:14.602Z,10.80
2018-12-29T10:34:46.025Z,11.53
2018-12-29T10:37:18.529Z,11.80
2018-12-29T10:39:49.936Z,11.20
2018-12-29T10:42:21.397Z,13.30
2018-12-29T10:44:53.389Z,12.10
2018-12-29T10:47:24.771Z,11.33
2018-12-29T10:49:56.205Z,11.83
2018-12-29T10:52:27.888Z,11.73
2018-12-29T10:54:59.858Z,11.10
2018-12-29T10:57:31.305Z,11.30
2018-12-29T11:00:02.678Z,11.37
2018-12-29T11:02:34.057Z,12.57
2018-12-29T11:05:05.723Z,11.67
2018-12-29T11:07:37.382Z,11.30
2018-12-29T11:10:08.653Z,11.80
2018-12-29T11:12:40.958Z,12.10
2018-12-29T11:15:11.831Z,12.87
2018-12-29T11:17:43.232Z,12.47
2018-12-29T11:20:14.987Z,11.27
2018-12-29T11:22:49.623Z,11.80
2018-12-29T11:25:20.813Z,13.10
2018-12-29T11:27:52.945Z,11.77
2018-12-29T11:30:24.989Z,11.63
2018-12-29T11:32:57.995Z,11.53
2018-12-29T11:35:30.806Z,11.97
2018-12-29T11:38:09.586Z,12.03
2018-12-29T11:40:46.883Z,16.53
2018-12-29T11:43:18.608Z,13.47
2018-12-29T11:45:50.256Z,20.70
2018-12-29T11:48:25.219Z,12.63
2018-12-29T11:50:56.395Z,12.60
2018-12-29T11:53:27.577Z,11.60
2018-12-29T11:55:58.734Z,13.07
2018-12-29T11:58:34.449Z,11.53
2018-12-29T12:01:09.462Z,12.17
2018-12-29T12:03:45.027Z,11.33
2018-12-29T12:06:16.567Z,12.00
2018-12-29T12:08:48.019Z,10.80
2018-12-29T12:11:19.734Z,12.03
2018-12-29T12:13:51.270Z,12.17
2018-12-29T12:16:22.649Z,12.60
2018-12-29T12:18:54.167Z,12.10
2018-12-29T12:21:25.577Z,11.67
2018-12-29T12:23:57.233Z,11.97
2018-12-29T12:26:28.709Z,12.87
2018-12-29T12:28:59.634Z,12.20
2018-12-29T12:31:32.054Z,11.60
2018-12-29T12:34:06.443Z,10.43
2018-12-29T12:36:41.566Z,12.23
2018-12-29T12:39:13.227Z,12.80
2018-12-29T12:41:47.405Z,12.17
2018-12-29T12:44:23.441Z,12.00
2018-12-29T12:46:54.525Z,11.80
2018-12-29T12:49:26.284Z,11.97
2018-12-29T12:51:57.974Z,10.47
2018-12-29T12:54:29.397Z,13.03
2018-12-29T12:57:00.852Z,11.17
2018-12-29T12:59:32.897Z,13.07
2018-12-29T13:02:04.657Z,12.87
2018-12-29T13:04:36.051Z,11.93
2018-12-29T13:07:09.567Z,11.60
2018-12-29T13:09:41.026Z,12.43
2018-12-29T13:12:12.109Z,11.90
2018-12-29T13:14:43.785Z,12.67
2018-12-29T13:17:14.640Z,11.63
2018-12-29T13:19:46.321Z,11.73
2018-12-29T13:22:17.673Z,11.87
2018-12-29T13:24:49.431Z,11.30
2018-12-29T13:27:20.869Z,11.93
2018-12-29T13:29:52.576Z,12.83
2018-12-29T13:32:24.530Z,11.63
2018-12-29T13:34:55.710Z,11.63
2018-12-29T13:37:27.351Z,11.80
2018-12-29T13:39:58.848Z,10.80
2018-12-29T13:42:30.555Z,10.27
2018-12-29T13:45:06.014Z,11.80
2018-12-29T13:47:37.119Z,10.97
2018-12-29T13:50:08.512Z,12.30
2018-12-29T13:52:39.996Z,11.70
2018-12-29T13:55:11.757Z,12.43
2018-12-29T13:57:43.230Z,11.50
2018-12-29T14:00:14.469Z,11.47
2018-12-29T14:02:45.848Z,14.33
2018-12-29T14:05:17.152Z,12.27
2018-12-29T14:07:49.154Z,17.23
2018-12-29T14:10:20.874Z,12.43
2018-12-29T14:12:52.630Z,14.70
2018-12-29T14:15:26.427Z,16.47
2018-12-29T14:17:57.944Z,14.87
2018-12-29T14:20:29.069Z,12.40
2018-12-29T14:23:00.775Z,16.70
2018-12-29T14:25:32.325Z,13.03
2018-12-29T14:28:04.042Z,13.37
2018-12-29T14:30:35.422Z,12.33
2018-12-29T14:33:07.004Z,12.37
2018-12-29T14:35:38.770Z,12.67
2018-12-29T14:38:12.575Z,15.77
2018-12-29T14:40:43.312Z,12.80
2018-12-29T14:43:14.788Z,12.67
2018-12-29T14:45:46.203Z,12.97
2018-12-29T14:48:17.881Z,11.97
2018-12-29T14:50:48.757Z,11.43
2018-12-29T14:53:20.438Z,12.10
2018-12-29T14:55:52.131Z,11.20
2018-12-29T14:58:23.534Z,11.20
2018-12-29T15:00:54.985Z,11.40
2018-12-29T15:03:26.541Z,11.73
2018-12-29T15:05:58.059Z,12.33
2018-12-29T15:08:29.829Z,12.43
2018-12-29T15:11:01.204Z,11.93
2018-12-29T15:13:33.272Z,12.43
2018-12-29T15:16:04.686Z,11.80
2018-12-29T15:18:43.452Z,12.47
2018-12-29T15:21:09.637Z,12.70
2018-12-29T15:23:41.372Z,11.33
2018-12-29T15:26:13.258Z,12.07
2018-12-29T15:28:44.910Z,11.53
2018-12-29T15:31:18.717Z,12.00
2018-12-29T15:33:50.462Z,11.27
2018-12-29T15:36:21.990Z,12.07
2018-12-29T15:38:53.046Z,12.67
2018-12-29T15:41:25.027Z,14.10
2018-12-29T15:43:56.720Z,13.40
2018-12-29T15:46:28.388Z,12.47
2018-12-29T15:49:00.890Z,14.20
2018-12-29T15:51:32.518Z,12.03
2018-12-29T15:54:03.834Z,11.20
2018-12-29T15:56:35.421Z,11.17
2018-12-29T15:59:06.687Z,11.17
2018-12-29T16:01:39.788Z,10.63
2018-12-29T16:04:11.300Z,12.03
2018-12-29T16:06:43.033Z,10.53
2018-12-29T16:09:14.645Z,11.27
2018-12-29T16:11:46.561Z,11.17
2018-12-29T16:14:18.268Z,12.03
2018-12-29T16:16:49.997Z,10.57
2018-12-29T16:19:25.676Z,11.80
2018-12-29T16:21:57.065Z,11.50
2018-12-29T16:24:28.528Z,10.80
2018-12-29T16:26:59.722Z,14.17
2018-12-29T16:29:31.118Z,11.23
2018-12-29T16:32:02.534Z,12.33
2018-12-29T16:34:34.404Z,11.77
2018-12-29T16:37:05.526Z,12.37
2018-12-29T16:39:37.209Z,13.60
2018-12-29T16:42:08.069Z,12.77
2018-12-29T16:44:39.557Z,13.13
2018-12-29T16:47:11.006Z,12.27
2018-12-29T16:49:42.653Z,12.40
2018-12-29T16:52:14.132Z,12.37
2018-12-29T16:54:45.672Z,12.33
2018-12-29T16:57:17.130Z,14.57
2018-12-29T16:59:48.892Z,12.60
2018-12-29T17:02:23.075Z,12.47
2018-12-29T17:04:54.952Z,13.27
2018-12-29T17:07:26.869Z,12.80
2018-12-29T17:09:58.430Z,14.30
2018-12-29T17:12:30.178Z,12.33
2018-12-29T17:15:01.585Z,13.40
2018-12-29T17:17:33.351Z,11.97
2018-12-29T17:20:04.401Z,12.67
2018-12-29T17:22:36.168Z,13.13
2018-12-29T17:25:14.095Z,13.67
2018-12-29T17:27:49.352Z,12.27
2018-12-29T17:30:21.687Z,12.60
2018-12-29T17:32:53.433Z,13.13
2018-12-29T17:35:24.904Z,13.07
2018-12-29T17:37:56.338Z,14.77
2018-12-29T17:40:27.918Z,13.03
2018-12-29T17:42:59.636Z,13.83
2018-12-29T17:45:31.680Z,13.57
2018-12-29T17:48:03.388Z,16.57
2018-12-29T17:50:35.158Z,16.80
2018-12-29T17:53:29.021Z,18.60
2018-12-29T17:56:01.031Z,14.43
2018-12-29T17:58:32.284Z,16.13
2018-12-29T18:01:04.103Z,16.20
2018-12-29T18:03:49.512Z,14.33
2018-12-29T18:06:22.553Z,16.47
2018-12-29T18:08:54.136Z,16.60
2018-12-29T18:11:33.153Z,14.70
2018-12-29T18:14:04.245Z,15.00
2018-12-29T18:16:36.216Z,19.87
2018-12-29T18:19:07.756Z,15.53
2018-12-29T18:21:39.259Z,15.27
2018-12-29T18:24:10.491Z,15.67
2018-12-29T18:26:41.672Z,16.00
2018-12-29T18:29:16.962Z,16.17
2018-12-29T18:31:48.655Z,13.80
2018-12-29T18:34:20.421Z,18.17
2018-12-29T18:36:52.131Z,15.90
2018-12-29T18:39:23.698Z,18.47
2018-12-29T18:41:55.074Z,16.17
2018-12-29T18:44:26.546Z,22.93
2018-12-29T18:46:58.671Z,18.10
2018-12-29T18:49:38.518Z,28.00
2018-12-29T18:52:07.328Z,23.17
2018-12-29T18:54:42.058Z,17.23
2018-12-29T18:57:14.157Z,24.80
2018-12-29T18:59:45.628Z,15.83
2018-12-29T19:02:17.789Z,16.53
2018-12-29T19:04:49.257Z,14.53
2018-12-29T19:07:21.192Z,16.10
2018-12-29T19:09:52.815Z,15.70
2018-12-29T19:12:24.282Z,15.50
2018-12-29T19:14:55.181Z,13.77
2018-12-29T19:17:27.128Z,15.47
2018-12-29T19:19:58.929Z,15.20
2018-12-29T19:22:29.807Z,15.83
2018-12-29T19:25:01.209Z,16.63
2018-12-29T19:27:32.757Z,18.13
2018-12-29T19:30:05.375Z,17.33
2018-12-29T19:32:36.939Z,16.83
2018-12-29T19:35:07.940Z,15.33
2018-12-29T19:37:39.687Z,18.43
2018-12-29T19:40:11.239Z,18.30
2018-12-29T19:42:42.868Z,17.67
2018-12-29T19:45:14.597Z,17.13
2018-12-29T19:47:46.477Z,17.07
2018-12-29T19:50:18.456Z,19.50
2018-12-29T19:52:50.164Z,17.77
2018-12-29T19:55:21.405Z,19.47
2018-12-29T19:57:52.554Z,16.57
2018-12-29T20:00:34.285Z,17.73
2018-12-29T20:03:06.929Z,18.13
2018-12-29T20:05:40.512Z,14.67
2018-12-29T20:08:13.388Z,15.90
2018-12-29T20:10:46.878Z,16.50
2018-12-29T20:13:29.664Z,16.40
2018-12-29T20:16:10.129Z,16.67
2018-12-29T20:18:44.093Z,18.63
2018-12-29T20:21:18.009Z,18.10
2018-12-29T20:23:52.652Z,20.93
2018-12-29T20:26:25.129Z,18.43
2018-12-29T20:28:57.153Z,17.90
2018-12-29T20:31:28.763Z,17.23
2018-12-29T20:34:01.801Z,19.27
2018-12-29T20:36:40.470Z,18.57
2018-12-29T20:39:17.154Z,14.17
2018-12-29T20:41:51.366Z,17.47
2018-12-29T20:44:24.830Z,17.80
2018-12-29T20:46:57.056Z,19.83
2018-12-29T20:49:31.090Z,15.97
2018-12-29T20:52:02.521Z,18.93
2018-12-29T20:54:35.167Z,16.20
2018-12-29T20:57:08.195Z,20.60
2018-12-29T20:59:39.627Z,21.47
2018-12-29T21:02:17.215Z,22.97
2018-12-29T21:04:49.306Z,18.00
2018-12-29T21:07:23.196Z,17.37
2018-12-29T21:09:55.343Z,18.47
2018-12-29T21:12:26.768Z,17.70
2018-12-29T21:14:58.956Z,17.47
2018-12-29T21:17:36.583Z,16.47
2018-12-29T21:20:20.326Z,17.70
2018-12-29T21:22:58.216Z,16.63
2018-12-29T21:25:31.169Z,18.50
2018-12-29T21:28:06.417Z,15.97
2018-12-29T21:30:44.360Z,16.77
2018-12-29T21:33:15.182Z,17.43
2018-12-29T21:35:46.663Z,15.27
2018-12-29T21:38:17.911Z,15.83
2018-12-29T21:40:49.383Z,18.27
2018-12-29T21:43:21.722Z,16.60
2018-12-29T21:45:52.417Z,15.63
2018-12-29T21:48:24.421Z,17.10
2018-12-29T21:50:56.857Z,16.20
2018-12-29T21:53:28.869Z,16.00
2018-12-29T21:56:01.763Z,17.03
2018-12-29T21:58:33.506Z,16.43
2018-12-29T22:01:04.812Z,16.67
2018-12-29T22:03:40.424Z,15.53
2018-12-29T22:06:12.005Z,15.83
2018-12-29T22:08:43.603Z,15.73
2018-12-29T22:11:17.133Z,15.83
2018-12-29T22:13:48.839Z,17.70
2018-12-29T22:16:20.968Z,18.17
2018-12-29T22:18:53.347Z,16.80
2018-12-29T22:21:27.371Z,15.67
2018-12-29T22:24:04.912Z,15.03
2018-12-29T22:26:37.708Z,17.10
2018-12-29T22:29:15.105Z,19.10
2018-12-29T22:31:49.162Z,17.00
2018-12-29T22:34:22.728Z,17.40
2018-12-29T22:36:56.463Z,18.07
2018-12-29T22:39:29.191Z,16.73
2018-12-29T22:42:09.804Z,16.80
2018-12-29T22:44:44.083Z,16.77
2018-12-29T22:47:17.837Z,17.23
2018-12-29T22:49:55.657Z,17.10
2018-12-29T22:52:34.191Z,17.10
2018-12-29T22:55:05.934Z,18.17
2018-12-29T22:57:37.450Z,18.00
2018-12-29T23:00:13.997Z,17.73
2018-12-29T23:02:45.218Z,17.50
2018-12-29T23:05:16.593Z,16.87
2018-12-29T23:07:49.213Z,18.00
2018-12-29T23:10:27.409Z,17.87
2018-12-29T23:13:02.760Z,15.43
2018-12-29T23:15:36.195Z,17.73
2018-12-29T23:18:07.347Z,17.13
2018-12-29T23:20:48.807Z,17.70
2018-12-29T23:23:16.078Z,15.77
2018-12-29T23:25:51.687Z,16.23
2018-12-29T23:28:32.542Z,16.37
2018-12-29T23:31:03.876Z,17.10
2018-12-29T23:33:35.669Z,14.20
2018-12-29T23:36:07.296Z,15.53
2018-12-29T23:38:38.831Z,15.00
2018-12-29T23:41:16.097Z,16.43
2018-12-29T23:43:47.947Z,17.90
2018-12-29T23:46:20.329Z,16.43
2018-12-29T23:48:51.760Z,16.93
2018-12-29T23:51:26.806Z,15.97
2018-12-29T23:53:58.775Z,15.60
2018-12-29T23:56:32.693Z,15.87
2018-12-29T23:59:04.518Z,16.20
